sensor_id;sensor_type;location;lat;lon;timestamp;P1;durP1;ratioP1;P2;durP2;ratioP2
3901;SDS011;1966;49.908;9.156;2023-05-14T00:04:05;6.23;;;5.67;;
3901;SDS011;1966;49.908;9.156;2023-05-14T00:09:06;6.03;;;5.43;;
3901;SDS011;1966;49.908;9.156;2023-05-14T00:14:05;6.50;;;5.57;;
3901;SDS011;1966;49.908;9.156;2023-05-14T00:19:05;7.57;;;5.43;;
3901;SDS011;1966;49.908;9.156;2023-05-14T00:24:04;6.50;;;5.90;;
3901;SDS011;1966;49.908;9.156;2023-05-14T00:29:05;6.87;;;5.30;;
3901;SDS011;1966;49.908;9.156;2023-05-14T00:34:04;5.70;;;5.20;;
3901;SDS011;1966;49.908;9.156;2023-05-14T00:39:03;7.50;;;6.03;;
3901;SDS011;1966;49.908;9.156;2023-05-14T00:44:02;5.93;;;5.33;;
3901;SDS011;1966;49.908;9.156;2023-05-14T00:49:03;8.03;;;5.30;;
3901;SDS011;1966;49.908;9.156;2023-05-14T00:54:03;5.63;;;5.13;;
3901;SDS011;1966;49.908;9.156;2023-05-14T00:59:02;6.10;;;5.53;;
3901;SDS011;1966;49.908;9.156;2023-05-14T01:04:01;5.93;;;5.20;;
3901;SDS011;1966;49.908;9.156;2023-05-14T01:09:05;11.67;;;7.57;;
3901;SDS011;1966;49.908;9.156;2023-05-14T01:14:09;8.23;;;6.23;;
3901;SDS011;1966;49.908;9.156;2023-05-14T01:19:16;7.73;;;5.63;;
3901;SDS011;1966;49.908;9.156;2023-05-14T01:24:20;7.30;;;4.77;;
3901;SDS011;1966;49.908;9.156;2023-05-14T01:29:20;6.53;;;5.70;;
3901;SDS011;1966;49.908;9.156;2023-05-14T01:34:20;5.57;;;5.03;;
3901;SDS011;1966;49.908;9.156;2023-05-14T01:39:22;5.83;;;5.23;;
3901;SDS011;1966;49.908;9.156;2023-05-14T01:44:22;5.33;;;4.83;;
3901;SDS011;1966;49.908;9.156;2023-05-14T01:49:21;5.40;;;4.90;;
3901;SDS011;1966;49.908;9.156;2023-05-14T01:54:22;5.57;;;4.83;;
3901;SDS011;1966;49.908;9.156;2023-05-14T01:59:21;6.23;;;5.67;;
3901;SDS011;1966;49.908;9.156;2023-05-14T02:04:20;5.73;;;5.13;;
3901;SDS011;1966;49.908;9.156;2023-05-14T02:09:19;5.87;;;5.27;;
3901;SDS011;1966;49.908;9.156;2023-05-14T02:14:20;6.33;;;5.57;;
3901;SDS011;1966;49.908;9.156;2023-05-14T02:19:19;6.30;;;5.43;;
3901;SDS011;1966;49.908;9.156;2023-05-14T02:24:18;6.23;;;5.10;;
3901;SDS011;1966;49.908;9.156;2023-05-14T02:29:18;6.60;;;4.90;;
3901;SDS011;1966;49.908;9.156;2023-05-14T02:34:18;6.93;;;5.70;;
3901;SDS011;1966;49.908;9.156;2023-05-14T02:39:18;6.07;;;5.47;;
3901;SDS011;1966;49.908;9.156;2023-05-14T02:44:17;6.73;;;6.07;;
3901;SDS011;1966;49.908;9.156;2023-05-14T02:49:16;6.30;;;5.70;;
3901;SDS011;1966;49.908;9.156;2023-05-14T02:54:17;5.57;;;5.07;;
3901;SDS011;1966;49.908;9.156;2023-05-14T02:59:16;6.50;;;5.60;;
3901;SDS011;1966;49.908;9.156;2023-05-14T03:04:15;6.80;;;5.77;;
3901;SDS011;1966;49.908;9.156;2023-05-14T03:09:14;7.57;;;6.43;;
3901;SDS011;1966;49.908;9.156;2023-05-14T03:14:15;6.70;;;6.00;;
3901;SDS011;1966;49.908;9.156;2023-05-14T03:19:14;6.80;;;5.80;;
3901;SDS011;1966;49.908;9.156;2023-05-14T03:24:13;7.23;;;5.63;;
3901;SDS011;1966;49.908;9.156;2023-05-14T03:29:13;6.60;;;5.97;;
3901;SDS011;1966;49.908;9.156;2023-05-14T03:34:16;6.80;;;5.90;;
3901;SDS011;1966;49.908;9.156;2023-05-14T03:39:15;6.90;;;5.50;;
3901;SDS011;1966;49.908;9.156;2023-05-14T03:44:16;9.33;;;5.90;;
3901;SDS011;1966;49.908;9.156;2023-05-14T03:49:17;6.67;;;5.97;;
3901;SDS011;1966;49.908;9.156;2023-05-14T03:54:16;6.43;;;5.73;;
3901;SDS011;1966;49.908;9.156;2023-05-14T03:59:16;7.83;;;5.70;;
3901;SDS011;1966;49.908;9.156;2023-05-14T04:04:15;7.03;;;5.70;;
3901;SDS011;1966;49.908;9.156;2023-05-14T04:09:16;6.83;;;5.90;;
3901;SDS011;1966;49.908;9.156;2023-05-14T04:14:15;7.30;;;5.90;;
3901;SDS011;1966;49.908;9.156;2023-05-14T04:19:14;7.80;;;6.23;;
3901;SDS011;1966;49.908;9.156;2023-05-14T04:24:13;7.27;;;6.10;;
3901;SDS011;1966;49.908;9.156;2023-05-14T04:29:14;9.43;;;6.40;;
3901;SDS011;1966;49.908;9.156;2023-05-14T04:34:13;7.00;;;6.17;;
3901;SDS011;1966;49.908;9.156;2023-05-14T04:39:13;6.60;;;5.87;;
3901;SDS011;1966;49.908;9.156;2023-05-14T04:44:13;8.30;;;6.77;;
3901;SDS011;1966;49.908;9.156;2023-05-14T04:49:12;6.90;;;6.20;;
3901;SDS011;1966;49.908;9.156;2023-05-14T04:54:12;7.00;;;6.10;;
3901;SDS011;1966;49.908;9.156;2023-05-14T04:59:11;6.87;;;6.17;;
3901;SDS011;1966;49.908;9.156;2023-05-14T05:04:12;8.33;;;7.30;;
3901;SDS011;1966;49.908;9.156;2023-05-14T05:09:11;11.43;;;8.60;;
3901;SDS011;1966;49.908;9.156;2023-05-14T05:14:10;10.30;;;8.37;;
3901;SDS011;1966;49.908;9.156;2023-05-14T05:19:09;11.20;;;9.57;;
3901;SDS011;1966;49.908;9.156;2023-05-14T05:24:10;14.53;;;11.23;;
3901;SDS011;1966;49.908;9.156;2023-05-14T05:29:10;13.90;;;11.40;;
3901;SDS011;1966;49.908;9.156;2023-05-14T05:34:09;12.90;;;10.07;;
3901;SDS011;1966;49.908;9.156;2023-05-14T05:39:08;13.17;;;10.63;;
3901;SDS011;1966;49.908;9.156;2023-05-14T05:44:09;11.53;;;9.80;;
3901;SDS011;1966;49.908;9.156;2023-05-14T05:49:08;12.87;;;10.13;;
3901;SDS011;1966;49.908;9.156;2023-05-14T05:54:08;11.97;;;10.30;;
3901;SDS011;1966;49.908;9.156;2023-05-14T05:59:07;13.27;;;10.30;;
3901;SDS011;1966;49.908;9.156;2023-05-14T06:04:08;12.97;;;10.67;;
3901;SDS011;1966;49.908;9.156;2023-05-14T06:09:07;10.73;;;9.60;;
3901;SDS011;1966;49.908;9.156;2023-05-14T06:14:06;12.57;;;9.40;;
3901;SDS011;1966;49.908;9.156;2023-05-14T06:19:07;14.37;;;11.07;;
3901;SDS011;1966;49.908;9.156;2023-05-14T06:24:07;13.80;;;9.50;;
3901;SDS011;1966;49.908;9.156;2023-05-14T06:29:06;11.77;;;9.93;;
3901;SDS011;1966;49.908;9.156;2023-05-14T06:34:05;10.73;;;9.53;;
3901;SDS011;1966;49.908;9.156;2023-05-14T06:39:06;10.30;;;9.30;;
3901;SDS011;1966;49.908;9.156;2023-05-14T06:44:05;11.87;;;9.83;;
3901;SDS011;1966;49.908;9.156;2023-05-14T06:49:04;9.97;;;8.83;;
3901;SDS011;1966;49.908;9.156;2023-05-14T06:54:04;13.30;;;10.03;;
3901;SDS011;1966;49.908;9.156;2023-05-14T06:59:04;11.00;;;9.40;;
3901;SDS011;1966;49.908;9.156;2023-05-14T07:04:04;12.43;;;10.40;;
3901;SDS011;1966;49.908;9.156;2023-05-14T07:09:03;11.20;;;10.00;;
3901;SDS011;1966;49.908;9.156;2023-05-14T07:14:05;11.90;;;9.23;;
3901;SDS011;1966;49.908;9.156;2023-05-14T07:19:04;12.13;;;9.30;;
3901;SDS011;1966;49.908;9.156;2023-05-14T07:24:04;10.37;;;9.20;;
3901;SDS011;1966;49.908;9.156;2023-05-14T07:29:04;9.53;;;8.53;;
3901;SDS011;1966;49.908;9.156;2023-05-14T07:34:03;10.93;;;8.87;;
3901;SDS011;1966;49.908;9.156;2023-05-14T07:39:04;9.57;;;8.57;;
3901;SDS011;1966;49.908;9.156;2023-05-14T07:44:04;9.57;;;7.97;;
3901;SDS011;1966;49.908;9.156;2023-05-14T07:49:04;10.10;;;8.63;;
3901;SDS011;1966;49.908;9.156;2023-05-14T07:54:03;11.27;;;7.43;;
3901;SDS011;1966;49.908;9.156;2023-05-14T07:59:02;7.33;;;6.30;;
3901;SDS011;1966;49.908;9.156;2023-05-14T08:04:03;7.60;;;6.80;;
3901;SDS011;1966;49.908;9.156;2023-05-14T08:09:02;6.83;;;6.23;;
3901;SDS011;1966;49.908;9.156;2023-05-14T08:14:02;7.67;;;6.97;;
3901;SDS011;1966;49.908;9.156;2023-05-14T08:19:02;6.20;;;5.60;;
3901;SDS011;1966;49.908;9.156;2023-05-14T08:24:02;8.27;;;6.33;;
3901;SDS011;1966;49.908;9.156;2023-05-14T08:29:01;5.70;;;5.20;;
3901;SDS011;1966;49.908;9.156;2023-05-14T08:34:00;7.63;;;6.23;;
3901;SDS011;1966;49.908;9.156;2023-05-14T08:39:01;6.53;;;5.93;;
3901;SDS011;1966;49.908;9.156;2023-05-14T08:44:03;11.00;;;5.60;;
3901;SDS011;1966;49.908;9.156;2023-05-14T08:49:07;5.63;;;5.13;;
3901;SDS011;1966;49.908;9.156;2023-05-14T08:54:10;6.93;;;5.80;;
3901;SDS011;1966;49.908;9.156;2023-05-14T08:59:12;6.57;;;5.87;;
3901;SDS011;1966;49.908;9.156;2023-05-14T09:04:11;5.63;;;5.13;;
3901;SDS011;1966;49.908;9.156;2023-05-14T09:09:12;6.07;;;5.47;;
3901;SDS011;1966;49.908;9.156;2023-05-14T09:14:11;5.70;;;5.20;;
3901;SDS011;1966;49.908;9.156;2023-05-14T09:19:11;6.10;;;5.50;;
3901;SDS011;1966;49.908;9.156;2023-05-14T09:24:18;5.70;;;5.10;;
3901;SDS011;1966;49.908;9.156;2023-05-14T09:29:18;5.73;;;5.10;;
3901;SDS011;1966;49.908;9.156;2023-05-14T09:34:22;5.53;;;5.03;;
3901;SDS011;1966;49.908;9.156;2023-05-14T09:39:24;4.97;;;4.50;;
3901;SDS011;1966;49.908;9.156;2023-05-14T09:44:23;4.47;;;4.07;;
3901;SDS011;1966;49.908;9.156;2023-05-14T09:49:23;5.20;;;4.80;;
3901;SDS011;1966;49.908;9.156;2023-05-14T09:54:23;4.47;;;4.07;;
3901;SDS011;1966;49.908;9.156;2023-05-14T09:59:23;4.67;;;4.27;;
3901;SDS011;1966;49.908;9.156;2023-05-14T10:04:23;5.43;;;4.93;;
3901;SDS011;1966;49.908;9.156;2023-05-14T10:09:24;4.63;;;4.23;;
3901;SDS011;1966;49.908;9.156;2023-05-14T10:14:25;5.20;;;4.70;;
3901;SDS011;1966;49.908;9.156;2023-05-14T10:19:26;4.80;;;4.40;;
3901;SDS011;1966;49.908;9.156;2023-05-14T10:24:27;4.77;;;4.27;;
3901;SDS011;1966;49.908;9.156;2023-05-14T10:29:30;5.27;;;4.80;;
3901;SDS011;1966;49.908;9.156;2023-05-14T10:34:31;4.57;;;4.20;;
3901;SDS011;1966;49.908;9.156;2023-05-14T10:39:44;5.20;;;4.70;;
3901;SDS011;1966;49.908;9.156;2023-05-14T10:44:46;4.53;;;4.13;;
3901;SDS011;1966;49.908;9.156;2023-05-14T10:49:45;4.80;;;4.40;;
3901;SDS011;1966;49.908;9.156;2023-05-14T10:54:52;5.73;;;4.60;;
3901;SDS011;1966;49.908;9.156;2023-05-14T10:59:52;4.80;;;4.40;;
3901;SDS011;1966;49.908;9.156;2023-05-14T11:04:53;4.80;;;4.40;;
3901;SDS011;1966;49.908;9.156;2023-05-14T11:09:57;8.50;;;4.70;;
3901;SDS011;1966;49.908;9.156;2023-05-14T11:14:58;5.40;;;4.90;;
3901;SDS011;1966;49.908;9.156;2023-05-14T11:19:57;4.90;;;4.30;;
3901;SDS011;1966;49.908;9.156;2023-05-14T11:24:58;4.83;;;4.40;;
3901;SDS011;1966;49.908;9.156;2023-05-14T11:29:57;4.83;;;4.30;;
3901;SDS011;1966;49.908;9.156;2023-05-14T11:34:57;4.73;;;4.33;;
3901;SDS011;1966;49.908;9.156;2023-05-14T11:39:58;5.97;;;4.17;;
3901;SDS011;1966;49.908;9.156;2023-05-14T11:44:58;4.60;;;4.20;;
3901;SDS011;1966;49.908;9.156;2023-05-14T11:49:58;4.80;;;4.40;;
3901;SDS011;1966;49.908;9.156;2023-05-14T11:54:59;4.90;;;4.50;;
3901;SDS011;1966;49.908;9.156;2023-05-14T11:59:58;4.93;;;4.53;;
3901;SDS011;1966;49.908;9.156;2023-05-14T12:04:58;5.00;;;4.60;;
3901;SDS011;1966;49.908;9.156;2023-05-14T12:10:03;4.27;;;3.97;;
3901;SDS011;1966;49.908;9.156;2023-05-14T12:15:09;3.80;;;3.50;;
3901;SDS011;1966;49.908;9.156;2023-05-14T12:20:09;3.40;;;3.20;;
3901;SDS011;1966;49.908;9.156;2023-05-14T12:25:11;3.70;;;3.40;;
3901;SDS011;1966;49.908;9.156;2023-05-14T12:30:11;3.80;;;3.50;;
3901;SDS011;1966;49.908;9.156;2023-05-14T12:35:11;3.93;;;3.53;;
3901;SDS011;1966;49.908;9.156;2023-05-14T12:40:11;4.10;;;3.80;;
3901;SDS011;1966;49.908;9.156;2023-05-14T12:45:11;4.80;;;4.00;;
3901;SDS011;1966;49.908;9.156;2023-05-14T12:50:10;4.23;;;3.77;;
3901;SDS011;1966;49.908;9.156;2023-05-14T12:55:09;4.27;;;3.97;;
3901;SDS011;1966;49.908;9.156;2023-05-14T13:00:10;4.40;;;4.00;;
3901;SDS011;1966;49.908;9.156;2023-05-14T13:05:10;5.20;;;4.70;;
3901;SDS011;1966;49.908;9.156;2023-05-14T13:10:09;6.43;;;5.80;;
3901;SDS011;1966;49.908;9.156;2023-05-14T13:15:10;8.90;;;6.60;;
3901;SDS011;1966;49.908;9.156;2023-05-14T13:20:10;5.03;;;4.63;;
3901;SDS011;1966;49.908;9.156;2023-05-14T13:25:09;4.70;;;4.20;;
3901;SDS011;1966;49.908;9.156;2023-05-14T13:30:09;4.00;;;3.70;;
3901;SDS011;1966;49.908;9.156;2023-05-14T13:35:10;3.73;;;3.43;;
3901;SDS011;1966;49.908;9.156;2023-05-14T13:40:10;3.93;;;3.63;;
3901;SDS011;1966;49.908;9.156;2023-05-14T13:45:09;2.90;;;2.70;;
3901;SDS011;1966;49.908;9.156;2023-05-14T13:50:11;3.08;;;2.88;;
3901;SDS011;1966;49.908;9.156;2023-05-14T13:55:10;4.93;;;2.70;;
3901;SDS011;1966;49.908;9.156;2023-05-14T14:00:10;2.75;;;2.58;;
3901;SDS011;1966;49.908;9.156;2023-05-14T14:05:11;4.65;;;2.60;;
3901;SDS011;1966;49.908;9.156;2023-05-14T14:10:11;2.80;;;2.60;;
3901;SDS011;1966;49.908;9.156;2023-05-14T14:15:10;2.55;;;2.45;;
3901;SDS011;1966;49.908;9.156;2023-05-14T14:20:09;3.33;;;3.00;;
3901;SDS011;1966;49.908;9.156;2023-05-14T14:25:10;2.72;;;2.53;;
3901;SDS011;1966;49.908;9.156;2023-05-14T14:30:10;2.70;;;2.50;;
3901;SDS011;1966;49.908;9.156;2023-05-14T14:35:13;2.30;;;2.20;;
3901;SDS011;1966;49.908;9.156;2023-05-14T14:40:14;2.83;;;2.63;;
3901;SDS011;1966;49.908;9.156;2023-05-14T14:45:13;2.55;;;2.35;;
3901;SDS011;1966;49.908;9.156;2023-05-14T14:50:12;2.42;;;2.30;;
3901;SDS011;1966;49.908;9.156;2023-05-14T14:55:11;2.20;;;2.10;;
3901;SDS011;1966;49.908;9.156;2023-05-14T15:00:13;4.00;;;2.42;;
3901;SDS011;1966;49.908;9.156;2023-05-14T15:05:13;2.50;;;2.40;;
3901;SDS011;1966;49.908;9.156;2023-05-14T15:10:12;2.30;;;2.20;;
3901;SDS011;1966;49.908;9.156;2023-05-14T15:15:13;2.55;;;2.35;;
3901;SDS011;1966;49.908;9.156;2023-05-14T15:20:12;2.25;;;2.15;;
3901;SDS011;1966;49.908;9.156;2023-05-14T15:25:11;2.90;;;2.70;;
3901;SDS011;1966;49.908;9.156;2023-05-14T15:30:11;2.90;;;2.70;;
3901;SDS011;1966;49.908;9.156;2023-05-14T15:35:12;2.78;;;2.40;;
3901;SDS011;1966;49.908;9.156;2023-05-14T15:40:11;2.97;;;2.78;;
3901;SDS011;1966;49.908;9.156;2023-05-14T15:45:11;4.65;;;2.55;;
3901;SDS011;1966;49.908;9.156;2023-05-14T15:50:12;2.60;;;2.50;;
3901;SDS011;1966;49.908;9.156;2023-05-14T15:55:11;3.22;;;2.80;;
3901;SDS011;1966;49.908;9.156;2023-05-14T16:00:11;3.20;;;3.00;;
3901;SDS011;1966;49.908;9.156;2023-05-14T16:05:12;2.78;;;2.58;;
3901;SDS011;1966;49.908;9.156;2023-05-14T16:10:11;3.30;;;3.10;;
3901;SDS011;1966;49.908;9.156;2023-05-14T16:15:10;3.03;;;2.83;;
3901;SDS011;1966;49.908;9.156;2023-05-14T16:20:11;4.23;;;3.83;;
3901;SDS011;1966;49.908;9.156;2023-05-14T16:25:11;3.40;;;3.10;;
3901;SDS011;1966;49.908;9.156;2023-05-14T16:30:10;3.37;;;3.03;;
3901;SDS011;1966;49.908;9.156;2023-05-14T16:35:09;3.40;;;3.20;;
3901;SDS011;1966;49.908;9.156;2023-05-14T16:40:11;6.17;;;3.87;;
3901;SDS011;1966;49.908;9.156;2023-05-14T16:45:10;6.83;;;3.80;;
3901;SDS011;1966;49.908;9.156;2023-05-14T16:50:10;4.20;;;3.73;;
3901;SDS011;1966;49.908;9.156;2023-05-14T16:55:10;4.17;;;3.80;;
3901;SDS011;1966;49.908;9.156;2023-05-14T17:00:10;3.87;;;3.57;;
3901;SDS011;1966;49.908;9.156;2023-05-14T17:05:09;3.90;;;3.50;;
3901;SDS011;1966;49.908;9.156;2023-05-14T17:10:09;4.10;;;3.70;;
3901;SDS011;1966;49.908;9.156;2023-05-14T17:15:10;4.70;;;3.90;;
3901;SDS011;1966;49.908;9.156;2023-05-14T17:20:10;6.43;;;4.40;;
3901;SDS011;1966;49.908;9.156;2023-05-14T17:25:09;9.30;;;6.70;;
3901;SDS011;1966;49.908;9.156;2023-05-14T17:30:10;7.57;;;5.23;;
3901;SDS011;1966;49.908;9.156;2023-05-14T17:35:09;5.33;;;4.63;;
3901;SDS011;1966;49.908;9.156;2023-05-14T17:40:09;3.80;;;3.50;;
3901;SDS011;1966;49.908;9.156;2023-05-14T17:45:10;5.00;;;3.87;;
3901;SDS011;1966;49.908;9.156;2023-05-14T17:50:10;4.23;;;3.70;;
3901;SDS011;1966;49.908;9.156;2023-05-14T17:55:09;6.30;;;5.63;;
3901;SDS011;1966;49.908;9.156;2023-05-14T18:00:10;6.80;;;6.10;;
3901;SDS011;1966;49.908;9.156;2023-05-14T18:05:09;5.90;;;5.10;;
3901;SDS011;1966;49.908;9.156;2023-05-14T18:10:09;4.47;;;4.03;;
3901;SDS011;1966;49.908;9.156;2023-05-14T18:15:09;6.50;;;4.27;;
3901;SDS011;1966;49.908;9.156;2023-05-14T18:20:09;4.37;;;3.90;;
3901;SDS011;1966;49.908;9.156;2023-05-14T18:25:08;8.80;;;4.50;;
3901;SDS011;1966;49.908;9.156;2023-05-14T18:30:12;6.27;;;4.97;;
3901;SDS011;1966;49.908;9.156;2023-05-14T18:35:11;5.90;;;4.30;;
3901;SDS011;1966;49.908;9.156;2023-05-14T18:40:11;5.13;;;4.57;;
3901;SDS011;1966;49.908;9.156;2023-05-14T18:45:12;4.60;;;4.13;;
3901;SDS011;1966;49.908;9.156;2023-05-14T18:50:12;4.57;;;3.90;;
3901;SDS011;1966;49.908;9.156;2023-05-14T18:55:11;4.87;;;3.93;;
3901;SDS011;1966;49.908;9.156;2023-05-14T19:00:11;4.30;;;3.90;;
3901;SDS011;1966;49.908;9.156;2023-05-14T19:05:11;7.00;;;3.83;;
3901;SDS011;1966;49.908;9.156;2023-05-14T19:10:10;4.13;;;3.33;;
3901;SDS011;1966;49.908;9.156;2023-05-14T19:15:10;4.10;;;3.47;;
3901;SDS011;1966;49.908;9.156;2023-05-14T19:20:09;5.30;;;3.80;;
3901;SDS011;1966;49.908;9.156;2023-05-14T19:25:10;5.03;;;4.20;;
3901;SDS011;1966;49.908;9.156;2023-05-14T19:30:10;4.60;;;4.00;;
3901;SDS011;1966;49.908;9.156;2023-05-14T19:35:09;5.10;;;4.10;;
3901;SDS011;1966;49.908;9.156;2023-05-14T19:40:10;4.27;;;3.57;;
3901;SDS011;1966;49.908;9.156;2023-05-14T19:45:10;4.73;;;4.27;;
3901;SDS011;1966;49.908;9.156;2023-05-14T19:50:09;5.60;;;4.30;;
3901;SDS011;1966;49.908;9.156;2023-05-14T19:55:09;3.90;;;3.60;;
3901;SDS011;1966;49.908;9.156;2023-05-14T20:00:10;5.90;;;4.00;;
3901;SDS011;1966;49.908;9.156;2023-05-14T20:05:10;3.70;;;3.33;;
3901;SDS011;1966;49.908;9.156;2023-05-14T20:10:09;6.50;;;4.03;;
3901;SDS011;1966;49.908;9.156;2023-05-14T20:15:10;5.47;;;4.20;;
3901;SDS011;1966;49.908;9.156;2023-05-14T20:20:09;4.50;;;4.10;;
3901;SDS011;1966;49.908;9.156;2023-05-14T20:25:09;6.13;;;4.40;;
3901;SDS011;1966;49.908;9.156;2023-05-14T20:30:09;4.30;;;3.90;;
3901;SDS011;1966;49.908;9.156;2023-05-14T20:35:09;4.80;;;4.07;;
3901;SDS011;1966;49.908;9.156;2023-05-14T20:40:08;4.27;;;3.87;;
3901;SDS011;1966;49.908;9.156;2023-05-14T20:45:10;4.53;;;4.13;;
3901;SDS011;1966;49.908;9.156;2023-05-14T20:50:10;5.77;;;4.10;;
3901;SDS011;1966;49.908;9.156;2023-05-14T20:55:10;4.77;;;4.27;;
3901;SDS011;1966;49.908;9.156;2023-05-14T21:00:12;7.33;;;4.43;;
3901;SDS011;1966;49.908;9.156;2023-05-14T21:05:11;4.97;;;4.47;;
3901;SDS011;1966;49.908;9.156;2023-05-14T21:10:11;8.30;;;5.27;;
3901;SDS011;1966;49.908;9.156;2023-05-14T21:15:12;4.77;;;4.17;;
3901;SDS011;1966;49.908;9.156;2023-05-14T21:20:11;5.10;;;3.87;;
3901;SDS011;1966;49.908;9.156;2023-05-14T21:25:12;5.40;;;4.37;;
3901;SDS011;1966;49.908;9.156;2023-05-14T21:30:13;8.90;;;4.60;;
3901;SDS011;1966;49.908;9.156;2023-05-14T21:35:13;6.43;;;4.57;;
3901;SDS011;1966;49.908;9.156;2023-05-14T21:40:12;6.60;;;4.97;;
3901;SDS011;1966;49.908;9.156;2023-05-14T21:45:12;5.47;;;4.97;;
3901;SDS011;1966;49.908;9.156;2023-05-14T21:50:12;5.23;;;4.60;;
3901;SDS011;1966;49.908;9.156;2023-05-14T21:55:11;6.00;;;5.13;;
3901;SDS011;1966;49.908;9.156;2023-05-14T22:00:10;5.53;;;5.03;;
3901;SDS011;1966;49.908;9.156;2023-05-14T22:05:12;6.00;;;4.80;;
3901;SDS011;1966;49.908;9.156;2023-05-14T22:10:12;6.17;;;5.30;;
3901;SDS011;1966;49.908;9.156;2023-05-14T22:15:12;7.97;;;5.13;;
3901;SDS011;1966;49.908;9.156;2023-05-14T22:20:12;8.13;;;6.30;;
3901;SDS011;1966;49.908;9.156;2023-05-14T22:25:12;15.83;;;7.40;;
3901;SDS011;1966;49.908;9.156;2023-05-14T22:30:11;10.70;;;7.33;;
3901;SDS011;1966;49.908;9.156;2023-05-14T22:35:10;11.07;;;8.00;;
3901;SDS011;1966;49.908;9.156;2023-05-14T22:40:11;9.90;;;7.30;;
3901;SDS011;1966;49.908;9.156;2023-05-14T22:45:11;11.40;;;6.80;;
3901;SDS011;1966;49.908;9.156;2023-05-14T22:50:10;14.03;;;8.43;;
3901;SDS011;1966;49.908;9.156;2023-05-14T22:55:11;11.90;;;8.20;;
3901;SDS011;1966;49.908;9.156;2023-05-14T23:00:11;10.00;;;7.10;;
3901;SDS011;1966;49.908;9.156;2023-05-14T23:05:10;7.50;;;5.90;;
3901;SDS011;1966;49.908;9.156;2023-05-14T23:10:11;8.17;;;5.60;;
3901;SDS011;1966;49.908;9.156;2023-05-14T23:15:10;6.83;;;5.80;;
3901;SDS011;1966;49.908;9.156;2023-05-14T23:20:10;6.27;;;5.40;;
3901;SDS011;1966;49.908;9.156;2023-05-14T23:25:10;15.67;;;6.27;;
3901;SDS011;1966;49.908;9.156;2023-05-14T23:30:10;9.73;;;6.77;;
3901;SDS011;1966;49.908;9.156;2023-05-14T23:35:09;9.37;;;7.30;;
3901;SDS011;1966;49.908;9.156;2023-05-14T23:40:10;10.33;;;7.50;;
3901;SDS011;1966;49.908;9.156;2023-05-14T23:45:10;6.93;;;6.03;;
3901;SDS011;1966;49.908;9.156;2023-05-14T23:50:10;9.80;;;7.10;;
3901;SDS011;1966;49.908;9.156;2023-05-14T23:55:10;8.40;;;6.57;;
